Time;durP1;ratioP1;P1;durP2;ratioP2;P2;SDS_P1;SDS_P2;PMS_P1;PMS_P2;Temp;Humidity;BMP_temperature;BMP_pressure;BME280_temperature;BME280_humidity;BME280_pressure;Samples;Min_cycle;Max_cycle;Signal;HPM_P1;HPM_P2
2023/01/19 00:00:41;;;;;;;12.37;9.37;;;-0.20;99.90;;;;;;5055152;28;20449;-52
2023/01/19 00:03:14;;;;;;;10.40;9.13;;;-0.20;99.90;;;;;;5054683;28;20477;-52
2023/01/19 00:05:42;;;;;;;12.93;10.30;;;-0.30;99.90;;;;;;5054782;28;20523;-52
2023/01/19 00:08:14;;;;;;;12.43;10.50;;;-0.20;99.90;;;;;;5054719;28;20454;-52
2023/01/19 00:10:42;;;;;;;12.33;9.50;;;-0.10;99.90;;;;;;5054787;28;20429;-52
2023/01/19 00:13:09;;;;;;;11.63;10.23;;;-0.20;99.90;;;;;;5054506;28;20472;-52
2023/01/19 00:15:36;;;;;;;10.77;9.67;;;-0.20;99.90;;;;;;5054378;28;20932;-52
2023/01/19 00:18:04;;;;;;;10.80;9.80;;;-0.10;99.90;;;;;;5054232;28;21039;-52
2023/01/19 00:20:34;;;;;;;12.63;10.37;;;-0.20;99.90;;;;;;5054290;28;20936;-52
2023/01/19 00:23:01;;;;;;;21.70;14.57;;;-0.20;99.90;;;;;;5054195;28;20492;-52
2023/01/19 00:25:28;;;;;;;15.00;11.70;;;-0.20;99.90;;;;;;5054104;28;20480;-52
2023/01/19 00:27:56;;;;;;;13.80;10.23;;;-0.20;99.90;;;;;;5053977;28;20995;-52
2023/01/19 00:30:23;;;;;;;9.87;8.93;;;-0.10;99.90;;;;;;5054357;28;20507;-51
2023/01/19 00:32:50;;;;;;;12.13;9.80;;;-0.10;99.90;;;;;;5054257;28;20450;-52
2023/01/19 00:35:18;;;;;;;10.43;8.77;;;-0.20;99.90;;;;;;5054017;28;20451;-52
2023/01/19 00:37:47;;;;;;;9.83;8.87;;;-0.10;99.90;;;;;;5054167;28;20445;-52
2023/01/19 00:40:14;;;;;;;12.90;11.30;;;-0.10;99.90;;;;;;5053989;28;20481;-52
2023/01/19 00:42:43;;;;;;;10.50;9.50;;;-0.20;99.90;;;;;;5053688;28;20886;-51
2023/01/19 00:45:12;;;;;;;12.07;9.83;;;-0.20;99.90;;;;;;5053772;28;20551;-52
2023/01/19 00:47:40;;;;;;;12.83;9.43;;;-0.20;99.90;;;;;;5054008;28;20454;-52
2023/01/19 00:50:10;;;;;;;9.60;8.60;;;-0.20;99.90;;;;;;5053766;28;20935;-52
2023/01/19 00:52:37;;;;;;;12.77;9.67;;;-0.30;99.90;;;;;;5053881;28;20519;-52
2023/01/19 00:55:08;;;;;;;12.00;9.40;;;-0.20;99.90;;;;;;5053890;28;20507;-52
2023/01/19 00:57:35;;;;;;;9.60;8.60;;;-0.20;99.90;;;;;;5053913;28;20452;-51
2023/01/19 01:00:04;;;;;;;15.50;9.70;;;-0.20;99.90;;;;;;5053756;28;20445;-52
2023/01/19 01:02:31;;;;;;;12.17;8.93;;;-0.20;99.90;;;;;;5053462;28;20445;-52
2023/01/19 01:05:01;;;;;;;11.50;9.47;;;-0.20;99.90;;;;;;5053748;28;20472;-53
2023/01/19 01:07:29;;;;;;;10.57;9.47;;;-0.30;99.90;;;;;;5053440;28;20455;-52
2023/01/19 01:09:56;;;;;;;11.10;9.97;;;-0.40;99.90;;;;;;5053464;28;20444;-52
2023/01/19 01:12:25;;;;;;;14.60;10.13;;;-0.50;99.90;;;;;;5053645;28;20441;-52
2023/01/19 01:14:52;;;;;;;9.70;8.70;;;-0.50;99.90;;;;;;5053632;28;20477;-52
2023/01/19 01:17:23;;;;;;;12.00;9.30;;;-0.60;99.90;;;;;;5053591;28;20484;-51
2023/01/19 01:19:50;;;;;;;12.83;9.50;;;-0.40;99.90;;;;;;5053384;28;21003;-52
2023/01/19 01:22:17;;;;;;;11.23;10.13;;;-0.40;99.90;;;;;;5053382;28;20445;-54
2023/01/19 01:24:45;;;;;;;9.93;8.37;;;-0.40;99.90;;;;;;5053293;28;20827;-53
2023/01/19 01:27:12;;;;;;;11.00;9.30;;;-0.40;99.90;;;;;;5053413;28;20485;-53
2023/01/19 01:29:40;;;;;;;9.90;8.70;;;-0.40;99.90;;;;;;5053574;28;20812;-53
2023/01/19 01:32:07;;;;;;;15.13;10.57;;;-0.30;99.90;;;;;;5053319;28;20465;-54
2023/01/19 01:34:34;;;;;;;14.23;12.73;;;-0.20;99.90;;;;;;5053552;28;20472;-54
2023/01/19 01:37:01;;;;;;;10.30;8.60;;;-0.20;99.90;;;;;;5053415;28;20873;-54
2023/01/19 01:39:29;;;;;;;11.10;9.43;;;-0.30;99.90;;;;;;5053984;28;20536;-54
2023/01/19 01:41:56;;;;;;;12.63;9.53;;;-0.30;99.90;;;;;;5053317;28;20814;-53
2023/01/19 01:44:51;;;;;;;12.07;9.00;;;-0.30;99.90;;;;;;5053371;28;20824;-53
2023/01/19 01:47:38;;;;;;;10.47;9.43;;;-0.40;99.90;;;;;;5052941;28;20971;-54
2023/01/19 01:50:10;;;;;;;12.33;10.77;;;-0.40;99.90;;;;;;5053012;28;20425;-54
2023/01/19 01:52:43;;;;;;;12.80;9.00;;;-0.50;99.90;;;;;;5053259;28;20449;-53
2023/01/19 01:55:12;;;;;;;11.03;9.83;;;-0.50;99.90;;;;;;5052938;28;20916;-53
2023/01/19 01:57:43;;;;;;;11.50;8.87;;;-0.40;99.90;;;;;;5053298;28;20448;-53
2023/01/19 02:00:14;;;;;;;13.17;9.23;;;-0.30;99.90;;;;;;5052940;28;20422;-52
2023/01/19 02:02:49;;;;;;;10.70;9.60;;;-0.30;99.90;;;;;;5053271;28;20833;-52
2023/01/19 02:05:21;;;;;;;10.83;9.73;;;-0.30;99.90;;;;;;5052875;28;20425;-53
2023/01/19 02:13:24;;;;;;;10.33;9.20;;;-0.30;99.90;;;;;;5054876;28;20516;-53
2023/01/19 02:15:57;;;;;;;9.80;8.80;;;-0.30;99.90;;;;;;5056916;28;20437;-53
2023/01/19 02:18:26;;;;;;;9.73;8.40;;;-0.30;99.90;;;;;;5056701;28;20483;-53
2023/01/19 02:21:05;;;;;;;11.47;8.10;;;-0.30;99.90;;;;;;5056817;28;20448;-54
2023/01/19 02:23:42;;;;;;;11.10;9.13;;;-0.30;99.90;;;;;;5056827;28;20567;-53
2023/01/19 02:26:13;;;;;;;9.37;8.37;;;-0.30;99.90;;;;;;5056756;28;20920;-54
2023/01/19 02:28:44;;;;;;;12.63;9.40;;;-0.30;99.90;;;;;;5056694;28;20431;-54
2023/01/19 02:31:13;;;;;;;12.53;9.17;;;-0.30;99.90;;;;;;5056725;28;20433;-54
2023/01/19 02:33:41;;;;;;;9.97;7.73;;;-0.30;99.90;;;;;;5056216;28;20473;-54
2023/01/19 02:36:11;;;;;;;10.77;9.20;;;-0.30;99.90;;;;;;5056343;28;20445;-54
2023/01/19 02:38:42;;;;;;;10.37;8.40;;;-0.30;99.90;;;;;;5056151;28;20815;-54
2023/01/19 02:41:12;;;;;;;9.40;8.40;;;-0.30;99.90;;;;;;5056491;28;20449;-52
2023/01/19 02:43:42;;;;;;;13.30;9.07;;;-0.40;99.90;;;;;;5056151;28;20895;-52
2023/01/19 02:46:09;;;;;;;10.00;8.97;;;-0.40;99.90;;;;;;5056068;28;20986;-52
2023/01/19 02:48:36;;;;;;;12.07;9.67;;;-0.30;99.90;;;;;;5056320;28;20540;-53
2023/01/19 02:51:12;;;;;;;11.00;8.03;;;-0.30;99.90;;;;;;5056394;28;20451;-52
2023/01/19 02:54:08;;;;;;;10.53;9.43;;;-0.30;99.90;;;;;;5056308;28;20824;-52
2023/01/19 02:56:56;;;;;;;9.13;8.23;;;-0.50;99.90;;;;;;5055847;28;20568;-51
2023/01/19 02:59:37;;;;;;;11.83;8.60;;;-0.50;99.90;;;;;;5056131;28;20437;-52
2023/01/19 03:02:24;;;;;;;11.73;8.63;;;-0.50;99.90;;;;;;5056272;28;20774;-52
2023/01/19 03:05:05;;;;;;;11.43;9.20;;;-0.50;99.90;;;;;;5056014;28;20471;-54
2023/01/19 03:07:49;;;;;;;13.47;9.50;;;-0.40;99.90;;;;;;5056043;28;20469;-52
2023/01/19 03:10:31;;;;;;;9.50;8.30;;;-0.50;99.90;;;;;;5055934;28;20773;-53
2023/01/19 03:13:09;;;;;;;11.97;8.00;;;-0.50;99.90;;;;;;5055802;28;20548;-53
2023/01/19 03:15:50;;;;;;;12.57;8.33;;;-0.40;99.90;;;;;;5055602;28;20430;-52
2023/01/19 03:18:23;;;;;;;10.70;8.73;;;-0.40;99.90;;;;;;5055751;28;20457;-52
2023/01/19 03:20:54;;;;;;;13.37;9.70;;;-0.40;99.90;;;;;;5055993;28;20495;-52
2023/01/19 03:23:28;;;;;;;11.40;10.20;;;-0.50;99.90;;;;;;5055469;28;20564;-52
2023/01/19 03:25:59;;;;;;;9.83;8.83;;;-0.50;99.90;;;;;;5055381;28;20469;-52
2023/01/19 03:28:29;;;;;;;14.70;9.33;;;-0.50;99.90;;;;;;5055376;28;20433;-52
2023/01/19 03:31:29;;;;;;;10.37;9.37;;;-0.50;99.90;;;;;;5055567;28;20444;-54
2023/01/19 03:34:00;;;;;;;9.20;8.23;;;-0.50;99.90;;;;;;5055169;28;20473;-52
2023/01/19 03:36:31;;;;;;;9.13;8.23;;;-0.50;99.90;;;;;;5055217;28;20892;-53
2023/01/19 03:39:00;;;;;;;11.50;8.87;;;-0.40;99.90;;;;;;5055422;28;20430;-52
2023/01/19 03:41:30;;;;;;;10.60;8.57;;;-0.50;99.90;;;;;;5055088;28;20547;-52
2023/01/19 03:43:57;;;;;;;12.10;8.90;;;-0.50;99.90;;;;;;5055123;28;20465;-52
2023/01/19 03:46:26;;;;;;;9.53;8.50;;;-0.40;99.90;;;;;;5055030;28;20481;-52
2023/01/19 03:48:53;;;;;;;16.03;8.93;;;-0.50;99.90;;;;;;5055205;28;20488;-52
2023/01/19 03:51:22;;;;;;;16.03;8.73;;;-0.50;99.90;;;;;;5054874;28;20947;-54
2023/01/19 03:53:49;;;;;;;8.80;7.90;;;-0.40;99.90;;;;;;5054969;28;20979;-54
2023/01/19 03:56:19;;;;;;;11.67;9.50;;;-0.50;99.90;;;;;;5054619;28;21006;-51
2023/01/19 03:58:48;;;;;;;13.90;9.83;;;-0.60;99.90;;;;;;5054719;28;20948;-52
2023/01/19 04:01:17;;;;;;;9.80;8.80;;;-0.60;99.90;;;;;;5054788;28;20966;-52
2023/01/19 04:03:46;;;;;;;11.50;9.23;;;-0.70;99.90;;;;;;5054489;28;20473;-52
2023/01/19 04:06:13;;;;;;;9.37;7.53;;;-0.70;99.90;;;;;;5054556;28;20984;-54
2023/01/19 04:08:40;;;;;;;9.90;8.70;;;-0.70;99.90;;;;;;5054947;28;20810;-51
2023/01/19 04:11:07;;;;;;;9.33;8.43;;;-0.70;99.90;;;;;;5054501;28;20807;-52
2023/01/19 04:13:35;;;;;;;11.50;8.17;;;-0.70;99.90;;;;;;5054331;28;20465;-54
2023/01/19 04:16:05;;;;;;;10.43;8.63;;;-0.70;99.90;;;;;;5054359;28;20445;-54
2023/01/19 04:18:34;;;;;;;9.10;8.23;;;-0.60;99.90;;;;;;5054569;28;20825;-54
2023/01/19 04:21:02;;;;;;;12.23;8.13;;;-0.70;99.90;;;;;;5054575;28;20563;-51
2023/01/19 04:23:29;;;;;;;11.10;9.20;;;-0.60;99.90;;;;;;5054479;28;20477;-54
2023/01/19 04:25:59;;;;;;;12.37;8.60;;;-0.70;99.90;;;;;;5054124;28;20449;-54
2023/01/19 04:28:27;;;;;;;10.03;9.13;;;-0.70;99.90;;;;;;5054102;28;20940;-52
2023/01/19 04:30:54;;;;;;;13.63;10.83;;;-0.70;99.90;;;;;;5054414;28;20452;-55
2023/01/19 04:33:24;;;;;;;10.53;8.10;;;-0.80;99.90;;;;;;5054429;28;20472;-54
2023/01/19 04:35:53;;;;;;;10.80;9.23;;;-0.70;99.90;;;;;;5053643;28;20456;-52
2023/01/19 04:38:20;;;;;;;11.47;8.07;;;-0.70;99.90;;;;;;5053952;28;20452;-52
2023/01/19 04:40:48;;;;;;;9.80;8.47;;;-0.70;99.90;;;;;;5054364;28;20446;-52
2023/01/19 04:43:16;;;;;;;8.47;7.70;;;-0.70;99.90;;;;;;5053905;28;20993;-52
2023/01/19 04:45:44;;;;;;;9.33;8.03;;;-0.70;99.90;;;;;;5053799;28;20962;-52
2023/01/19 04:48:11;;;;;;;10.63;9.47;;;-0.60;99.90;;;;;;5054096;28;20493;-52
2023/01/19 04:50:40;;;;;;;9.40;8.40;;;-0.70;99.90;;;;;;5053900;28;20479;-52
2023/01/19 04:53:07;;;;;;;10.07;8.23;;;-0.80;99.90;;;;;;5054058;28;20476;-52
2023/01/19 04:55:35;;;;;;;13.27;9.07;;;-0.70;99.90;;;;;;5053687;28;20568;-52
2023/01/19 04:58:02;;;;;;;10.07;8.07;;;-0.80;99.90;;;;;;5053792;28;20450;-52
2023/01/19 05:00:29;;;;;;;13.10;7.97;;;-0.80;99.90;;;;;;5053841;28;20473;-52
2023/01/19 05:02:56;;;;;;;11.50;7.87;;;-0.70;99.90;;;;;;5053825;28;20499;-52
2023/01/19 05:05:23;;;;;;;9.27;8.17;;;-0.80;99.90;;;;;;5053787;28;20524;-52
2023/01/19 05:11:55;;;;;;;10.03;8.97;;;-0.80;99.90;;;;;;5045469;28;20806;-54
2023/01/19 05:14:22;;;;;;;10.73;8.03;;;-0.90;99.90;;;;;;5045191;28;20477;-54
2023/01/19 05:16:49;;;;;;;10.73;9.10;;;-0.90;99.90;;;;;;5053397;28;20440;-54
2023/01/19 05:19:16;;;;;;;10.87;9.23;;;-0.90;99.90;;;;;;5053323;28;20446;-54
2023/01/19 05:21:43;;;;;;;10.13;9.00;;;-0.90;99.90;;;;;;5053321;28;20445;-53
2023/01/19 05:24:10;;;;;;;11.07;8.33;;;-0.80;99.90;;;;;;5053770;28;20477;-53
2023/01/19 05:26:39;;;;;;;13.53;9.17;;;-0.80;99.90;;;;;;5053187;28;21021;-53
2023/01/19 05:29:06;;;;;;;9.33;8.33;;;-0.80;99.90;;;;;;5053519;28;20455;-54
2023/01/19 05:31:34;;;;;;;10.47;8.73;;;-0.70;99.90;;;;;;5053535;28;20463;-53
2023/01/19 05:34:01;;;;;;;9.97;8.57;;;-0.80;99.90;;;;;;5053499;28;20469;-53
2023/01/19 05:36:28;;;;;;;9.90;7.93;;;-0.70;99.90;;;;;;5053496;28;20448;-52
2023/01/19 05:38:56;;;;;;;12.33;9.60;;;-0.80;99.90;;;;;;5053479;28;20448;-52
2023/01/19 05:41:23;;;;;;;10.60;8.20;;;-0.80;99.90;;;;;;5053084;28;20456;-54
2023/01/19 05:43:51;;;;;;;11.23;9.07;;;-0.80;99.90;;;;;;5053143;28;20478;-53
2023/01/19 05:46:18;;;;;;;9.70;8.70;;;-0.70;99.90;;;;;;5053460;28;20460;-53
2023/01/19 05:48:45;;;;;;;9.90;8.77;;;-0.80;99.90;;;;;;5055737;28;20449;-53
2023/01/19 05:51:12;;;;;;;10.33;8.30;;;-0.70;99.90;;;;;;5057012;28;20456;-51
2023/01/19 05:53:39;;;;;;;16.87;10.10;;;-0.80;99.90;;;;;;5057191;28;20476;-54
2023/01/19 05:56:09;;;;;;;12.40;8.67;;;-0.80;99.90;;;;;;5054842;28;20482;-53
2023/01/19 05:58:38;;;;;;;9.93;8.60;;;-0.80;99.90;;;;;;5055657;28;20449;-53
2023/01/19 06:01:08;;;;;;;10.53;8.60;;;-0.80;99.90;;;;;;5055845;28;20456;-54
2023/01/19 06:03:36;;;;;;;11.80;8.23;;;-0.80;99.90;;;;;;5055718;28;20518;-53
2023/01/19 06:06:04;;;;;;;14.60;11.40;;;-0.80;99.90;;;;;;5055530;28;20453;-51
2023/01/19 06:08:31;;;;;;;13.63;9.53;;;-0.80;99.90;;;;;;5055410;28;20485;-53
2023/01/19 06:10:58;;;;;;;12.67;8.87;;;-0.70;99.90;;;;;;5055319;28;20451;-52
2023/01/19 06:13:25;;;;;;;15.90;9.80;;;-0.70;99.90;;;;;;5054986;28;20832;-53
2023/01/19 06:15:57;;;;;;;10.00;8.40;;;-0.80;99.90;;;;;;5055191;28;20449;-54
2023/01/19 06:18:26;;;;;;;10.03;8.70;;;-0.80;99.90;;;;;;5055381;28;20421;-53
2023/01/19 06:20:57;;;;;;;10.30;9.17;;;-0.90;99.90;;;;;;5055155;28;20500;-51
2023/01/19 06:23:24;;;;;;;11.90;9.60;;;-0.80;99.90;;;;;;5055028;28;20473;-51
2023/01/19 06:25:52;;;;;;;10.17;8.70;;;-0.70;99.90;;;;;;5055137;28;21003;-51
2023/01/19 06:28:19;;;;;;;12.43;9.60;;;-0.80;99.90;;;;;;5055094;28;21024;-53
2023/01/19 06:30:49;;;;;;;15.53;10.63;;;-0.80;99.90;;;;;;5054776;28;20984;-53
2023/01/19 06:33:16;;;;;;;11.63;9.00;;;-0.90;99.90;;;;;;5054816;28;20526;-54
2023/01/19 06:35:45;;;;;;;10.17;9.17;;;-0.90;99.90;;;;;;5055313;28;20445;-51
2023/01/19 06:38:13;;;;;;;13.13;9.50;;;-0.90;99.90;;;;;;5055201;28;20440;-51
2023/01/19 06:40:40;;;;;;;11.07;9.73;;;-0.90;99.90;;;;;;5055082;28;20449;-54
2023/01/19 06:43:08;;;;;;;10.50;9.40;;;-0.80;99.90;;;;;;5054564;28;20476;-53
2023/01/19 06:45:35;;;;;;;11.57;8.80;;;-0.90;99.90;;;;;;5054859;28;20507;-52
2023/01/19 06:48:03;;;;;;;11.03;8.70;;;-0.80;99.90;;;;;;5054547;28;21013;-54
2023/01/19 06:50:30;;;;;;;12.87;10.73;;;-0.80;99.90;;;;;;5054661;28;20448;-52
2023/01/19 06:52:58;;;;;;;13.77;9.73;;;-0.80;99.90;;;;;;5054848;28;20567;-51
2023/01/19 06:55:26;;;;;;;10.80;8.57;;;-0.80;99.90;;;;;;4923023;28;3780424;-52
2023/01/19 06:57:57;;;;;;;11.17;8.17;;;-0.80;99.90;;;;;;5056158;28;20307;-52
2023/01/19 07:00:24;;;;;;;12.10;9.43;;;-0.90;99.90;;;;;;5055823;28;20505;-54
2023/01/19 07:02:52;;;;;;;9.60;8.60;;;-0.90;99.90;;;;;;5055884;28;20552;-54
2023/01/19 07:05:20;;;;;;;10.57;9.47;;;-0.90;99.90;;;;;;5055441;28;20450;-52
2023/01/19 07:07:52;;;;;;;11.20;9.40;;;-0.80;99.90;;;;;;5055881;28;20489;-51
2023/01/19 07:10:21;;;;;;;15.67;8.97;;;-0.80;99.90;;;;;;5055930;28;20430;-51
2023/01/19 07:12:48;;;;;;;12.23;9.40;;;-0.90;99.90;;;;;;5055333;28;20445;-52
2023/01/19 07:15:16;;;;;;;12.07;8.13;;;-0.80;99.90;;;;;;5055410;28;20451;-52
2023/01/19 07:17:43;;;;;;;9.53;7.67;;;-0.80;99.90;;;;;;5055650;28;20537;-52
2023/01/19 07:20:13;;;;;;;11.83;8.40;;;-0.70;99.90;;;;;;5055297;28;20457;-52
2023/01/19 07:22:40;;;;;;;8.83;7.37;;;-0.60;99.90;;;;;;5055540;28;20474;-53
2023/01/19 07:25:08;;;;;;;9.87;8.87;;;-0.70;99.90;;;;;;5055441;28;20459;-52
2023/01/19 07:27:36;;;;;;;10.13;7.83;;;-0.70;99.90;;;;;;5055501;28;20491;-54
2023/01/19 07:30:04;;;;;;;20.50;8.60;;;-0.80;99.90;;;;;;5055403;28;20455;-54
2023/01/19 07:32:31;;;;;;;8.87;7.87;;;-0.70;99.90;;;;;;5055565;28;20851;-54
2023/01/19 07:34:58;;;;;;;8.37;7.53;;;-0.60;99.90;;;;;;5055685;28;20894;-54
2023/01/19 07:37:25;;;;;;;10.27;7.50;;;-0.50;99.90;;;;;;5055389;28;20447;-52
2023/01/19 07:39:53;;;;;;;9.90;8.30;;;-0.50;99.90;;;;;;5054781;28;20456;-55
2023/01/19 07:42:20;;;;;;;11.20;9.03;;;-0.50;99.90;;;;;;5054892;28;20453;-54
2023/01/19 07:44:48;;;;;;;9.63;8.10;;;-0.60;99.90;;;;;;5054946;28;20552;-52
2023/01/19 07:47:15;;;;;;;10.10;7.50;;;-0.50;99.90;;;;;;5055122;28;20480;-53
2023/01/19 07:49:42;;;;;;;9.60;7.73;;;-0.50;99.90;;;;;;5054890;28;20453;-52
2023/01/19 07:52:10;;;;;;;9.03;7.00;;;-0.50;99.90;;;;;;5054594;28;20524;-54
2023/01/19 07:54:37;;;;;;;9.33;8.17;;;-0.40;99.90;;;;;;5054100;28;20548;-54
2023/01/19 07:57:08;;;;;;;8.87;7.87;;;-0.40;99.90;;;;;;5055037;28;20443;-54
2023/01/19 07:59:36;;;;;;;8.70;7.70;;;-0.40;99.90;;;;;;5054807;28;20528;-54
2023/01/19 08:02:04;;;;;;;9.63;6.83;;;-0.40;99.90;;;;;;5054476;28;20503;-54
2023/01/19 08:04:31;;;;;;;9.90;8.07;;;-0.40;99.90;;;;;;5054431;28;20469;-55
2023/01/19 08:06:58;;;;;;;9.50;7.53;;;-0.30;99.90;;;;;;5054655;28;20455;-53
2023/01/19 08:09:26;;;;;;;10.43;7.57;;;-0.30;99.90;;;;;;5054770;28;20445;-53
2023/01/19 08:11:53;;;;;;;8.70;7.87;;;-0.20;99.90;;;;;;5053925;28;20532;-54
2023/01/19 08:14:20;;;;;;;8.77;7.87;;;-0.20;99.90;;;;;;5054241;28;20472;-54
2023/01/19 08:16:47;;;;;;;14.33;9.20;;;-0.20;99.90;;;;;;5054495;28;20453;-54
2023/01/19 08:19:18;;;;;;;9.60;7.83;;;-0.10;99.90;;;;;;5054520;28;20856;-53
2023/01/19 08:21:46;;;;;;;9.37;7.23;;;-0.10;99.90;;;;;;5054175;28;20441;-53
2023/01/19 08:24:20;;;;;;;11.30;6.50;;;0.00;99.90;;;;;;5053799;28;20474;-53
2023/01/19 08:26:47;;;;;;;11.73;6.93;;;0.10;99.90;;;;;;5054359;28;20441;-52
2023/01/19 08:29:14;;;;;;;10.00;7.23;;;0.20;99.90;;;;;;5053824;28;20488;-53
2023/01/19 08:31:42;;;;;;;8.20;5.97;;;0.30;99.90;;;;;;5054011;28;20450;-54
2023/01/19 08:34:09;;;;;;;13.53;6.70;;;0.30;99.90;;;;;;5053404;28;20495;-51
2023/01/19 08:36:38;;;;;;;10.00;7.10;;;0.40;99.90;;;;;;5053562;28;20441;-52
2023/01/19 08:39:05;;;;;;;7.37;6.47;;;0.30;99.90;;;;;;5053290;28;20445;-52
2023/01/19 08:41:32;;;;;;;7.00;5.80;;;0.30;99.90;;;;;;5053501;28;20540;-52
2023/01/19 08:43:59;;;;;;;7.03;6.33;;;0.20;99.90;;;;;;5053410;28;20469;-55
2023/01/19 08:46:26;;;;;;;11.63;6.83;;;0.20;99.90;;;;;;5053617;28;20449;-52
2023/01/19 08:48:54;;;;;;;8.47;6.73;;;0.30;99.90;;;;;;5053383;28;20481;-53
2023/01/19 08:51:21;;;;;;;9.00;6.90;;;0.40;99.90;;;;;;5052978;28;20855;-52
2023/01/19 08:53:49;;;;;;;8.50;7.20;;;0.50;99.90;;;;;;5053525;28;20797;-51
2023/01/19 08:56:17;;;;;;;9.60;7.20;;;0.50;99.90;;;;;;5053037;28;20517;-52
2023/01/19 08:58:45;;;;;;;8.50;6.47;;;0.60;99.90;;;;;;5053149;28;20452;-52
2023/01/19 09:01:15;;;;;;;9.60;7.80;;;0.70;99.90;;;;;;5053076;28;20487;-52
2023/01/19 09:03:43;;;;;;;13.53;6.57;;;0.80;99.90;;;;;;5053169;28;20478;-52
2023/01/19 09:06:11;;;;;;;9.33;6.40;;;0.90;99.90;;;;;;5053468;28;20543;-52
2023/01/19 09:08:39;;;;;;;7.00;6.20;;;1.00;99.90;;;;;;5053550;28;20534;-54
2023/01/19 09:11:11;;;;;;;5.53;5.03;;;1.00;99.90;;;;;;5053597;28;20472;-54
2023/01/19 09:13:38;;;;;;;6.70;5.90;;;1.00;99.90;;;;;;5053440;28;20469;-54
2023/01/19 09:16:07;;;;;;;7.53;6.30;;;1.10;99.90;;;;;;5052853;28;20469;-53
2023/01/19 09:18:35;;;;;;;10.17;6.30;;;1.10;99.90;;;;;;5053504;28;20450;-54
2023/01/19 09:21:04;;;;;;;10.37;6.40;;;1.30;99.90;;;;;;5052817;28;20893;-52
2023/01/19 09:23:31;;;;;;;7.60;6.77;;;1.30;99.90;;;;;;5053090;28;20477;-52
2023/01/19 09:26:00;;;;;;;7.93;6.57;;;1.30;99.90;;;;;;5053209;28;20456;-52
2023/01/19 09:28:29;;;;;;;7.80;6.40;;;1.40;99.90;;;;;;5052836;28;20531;-53
2023/01/19 09:30:57;;;;;;;8.20;6.80;;;1.40;99.90;;;;;;5052885;28;20445;-52
2023/01/19 09:33:24;;;;;;;8.63;6.13;;;1.40;99.90;;;;;;5052673;28;20955;-52
2023/01/19 09:35:51;;;;;;;8.50;6.47;;;1.50;99.90;;;;;;5052981;28;20786;-52
2023/01/19 09:38:21;;;;;;;7.20;5.90;;;1.60;99.90;;;;;;5053058;28;20449;-52
2023/01/19 09:40:50;;;;;;;6.77;5.80;;;1.50;99.90;;;;;;5052544;28;20503;-52
2023/01/19 09:43:25;;;;;;;8.93;6.27;;;1.60;99.90;;;;;;5052758;28;20501;-52
2023/01/19 09:45:58;;;;;;;7.10;6.10;;;1.40;99.90;;;;;;5052634;28;20495;-52
2023/01/19 09:48:33;;;;;;;7.50;6.70;;;1.50;99.90;;;;;;5052789;28;20465;-52
2023/01/19 09:51:04;;;;;;;9.33;6.10;;;1.60;99.90;;;;;;5052698;28;20429;-52
2023/01/19 09:53:45;;;;;;;11.33;6.00;;;1.80;99.90;;;;;;5052297;28;20473;-52
2023/01/19 09:56:16;;;;;;;7.40;5.73;;;1.90;99.90;;;;;;5052556;28;20481;-53
2023/01/19 09:58:44;;;;;;;7.67;6.70;;;1.90;99.90;;;;;;5053053;28;20449;-51
2023/01/19 10:01:27;;;;;;;10.00;6.73;;;2.10;99.90;;;;;;5052517;28;20485;-52
2023/01/19 10:04:15;;;;;;;6.67;6.07;;;2.10;99.90;;;;;;5052763;28;20587;-51
2023/01/19 10:06:43;;;;;;;5.97;5.37;;;2.30;99.90;;;;;;5052545;28;20540;-54
2023/01/19 10:09:19;;;;;;;7.20;6.47;;;2.30;99.90;;;;;;5052465;28;20490;-51
2023/01/19 10:11:51;;;;;;;9.63;6.30;;;2.30;99.90;;;;;;5052349;28;20531;-51
2023/01/19 10:14:24;;;;;;;6.23;5.73;;;2.20;99.90;;;;;;5052073;28;20457;-53
2023/01/19 10:17:00;;;;;;;7.17;6.40;;;2.30;99.90;;;;;;5052347;28;20430;-52
2023/01/19 10:19:32;;;;;;;6.90;6.20;;;2.30;99.90;;;;;;5052792;28;20491;-52
2023/01/19 10:22:18;;;;;;;8.63;6.83;;;2.30;99.90;;;;;;5052448;28;20445;-52
2023/01/19 10:24:46;;;;;;;7.00;5.83;;;2.30;99.90;;;;;;5052540;28;20560;-51
2023/01/19 10:27:17;;;;;;;6.83;6.23;;;2.40;99.90;;;;;;5051886;28;20450;-51
2023/01/19 10:29:46;;;;;;;9.50;6.70;;;2.50;99.90;;;;;;5052073;28;20485;-51
2023/01/19 10:32:18;;;;;;;6.00;5.50;;;2.60;99.90;;;;;;5052307;28;20536;-52
2023/01/19 10:34:46;;;;;;;8.30;6.90;;;2.50;99.90;;;;;;5055035;28;20469;-52
2023/01/19 10:37:22;;;;;;;7.00;5.83;;;2.70;99.90;;;;;;5056258;28;20816;-52
2023/01/19 10:39:54;;;;;;;10.30;5.70;;;2.60;99.90;;;;;;5056415;28;20425;-51
2023/01/19 10:42:22;;;;;;;11.03;6.10;;;2.60;99.90;;;;;;5055897;28;20468;-52
2023/01/19 10:44:50;;;;;;;6.97;6.30;;;2.50;99.90;;;;;;5055581;28;21061;-52
2023/01/19 10:47:20;;;;;;;6.80;5.70;;;2.50;99.90;;;;;;5055713;28;20803;-52
2023/01/19 10:49:48;;;;;;;8.00;6.87;;;2.60;99.90;;;;;;5055623;28;20560;-52
2023/01/19 10:52:25;;;;;;;8.53;6.50;;;2.60;99.90;;;;;;5055379;28;20449;-52
2023/01/19 10:54:52;;;;;;;6.50;5.90;;;2.50;99.90;;;;;;5055686;28;20495;-52
2023/01/19 10:57:28;;;;;;;7.63;6.70;;;2.40;99.90;;;;;;5055352;28;20440;-52
2023/01/19 10:59:58;;;;;;;16.37;6.50;;;2.60;99.90;;;;;;5055412;28;20425;-55
2023/01/19 11:02:28;;;;;;;8.77;7.20;;;2.50;99.90;;;;;;5056064;28;20448;-51
2023/01/19 11:04:57;;;;;;;7.43;6.63;;;2.60;99.90;;;;;;5055232;28;20501;-51
2023/01/19 11:07:28;;;;;;;6.43;5.90;;;2.50;99.90;;;;;;5055437;28;20468;-51
2023/01/19 11:10:20;;;;;;;7.27;6.57;;;2.50;99.90;;;;;;5055272;28;20465;-51
2023/01/19 11:13:00;;;;;;;7.90;6.37;;;2.60;99.90;;;;;;5055142;28;20449;-51
2023/01/19 11:15:32;;;;;;;6.13;5.53;;;2.60;99.90;;;;;;5054996;28;20436;-51
2023/01/19 11:18:03;;;;;;;6.30;5.70;;;2.40;99.90;;;;;;5055309;28;20520;-51
2023/01/19 11:20:42;;;;;;;6.77;5.70;;;2.60;99.90;;;;;;5055441;28;20761;-51
2023/01/19 11:23:22;;;;;;;7.70;5.40;;;2.70;99.90;;;;;;5055189;28;20504;-51
2023/01/19 11:25:51;;;;;;;6.70;6.10;;;2.80;99.90;;;;;;5055115;28;20425;-50
2023/01/19 11:28:20;;;;;;;7.40;6.33;;;2.70;99.90;;;;;;5054777;28;20449;-53
2023/01/19 11:30:58;;;;;;;7.83;6.10;;;2.80;99.90;;;;;;5054845;28;20445;-52
2023/01/19 11:33:34;;;;;;;6.70;6.07;;;2.70;99.90;;;;;;5054656;28;20979;-53
2023/01/19 11:36:07;;;;;;;8.07;5.87;;;2.70;99.90;;;;;;5054940;28;20429;-52
2023/01/19 11:38:43;;;;;;;8.40;6.43;;;2.90;99.90;;;;;;5054544;28;20893;-52
2023/01/19 11:41:18;;;;;;;6.90;5.77;;;3.00;99.90;;;;;;5054915;28;20896;-52
2023/01/19 11:43:46;;;;;;;6.90;6.30;;;3.00;99.90;;;;;;5054219;28;20555;-52
2023/01/19 11:46:13;;;;;;;6.73;5.73;;;3.00;99.90;;;;;;5053151;28;20464;-52
2023/01/19 11:48:46;;;;;;;7.33;5.53;;;3.00;99.90;;;;;;5054316;28;20488;-52
2023/01/19 11:51:16;;;;;;;6.90;6.20;;;3.20;99.90;;;;;;5054754;28;20437;-52
2023/01/19 11:53:49;;;;;;;6.00;5.40;;;3.20;99.90;;;;;;5054117;28;20477;-54
2023/01/19 11:56:17;;;;;;;9.03;7.57;;;3.20;99.90;;;;;;5054472;28;20785;-52
2023/01/19 11:58:46;;;;;;;8.50;6.07;;;3.20;99.90;;;;;;5054343;28;20449;-51
2023/01/19 12:01:20;;;;;;;5.50;5.00;;;3.20;99.90;;;;;;5054127;28;20456;-52
2023/01/19 12:03:54;;;;;;;6.17;5.57;;;3.10;99.90;;;;;;5053906;28;20480;-52
2023/01/19 12:06:26;;;;;;;7.10;5.53;;;3.00;99.90;;;;;;5054606;28;20783;-52
2023/01/19 12:08:55;;;;;;;8.63;6.27;;;3.00;99.90;;;;;;5054400;28;20483;-52
2023/01/19 12:11:29;;;;;;;5.80;5.10;;;3.00;99.90;;;;;;5054148;28;20928;-52
2023/01/19 12:13:56;;;;;;;5.33;4.83;;;3.10;99.90;;;;;;5054092;28;20465;-52
2023/01/19 12:16:27;;;;;;;6.47;5.00;;;3.10;99.90;;;;;;5054324;28;20449;-52
2023/01/19 12:18:59;;;;;;;6.13;5.53;;;3.10;99.90;;;;;;5054208;28;20436;-52
2023/01/19 12:21:26;;;;;;;4.80;4.40;;;3.10;99.90;;;;;;5054136;28;20452;-52
2023/01/19 12:24:04;;;;;;;5.33;4.80;;;2.90;99.90;;;;;;5054266;28;20476;-52
2023/01/19 12:26:37;;;;;;;6.80;5.00;;;2.90;99.90;;;;;;5053808;28;20520;-52
2023/01/19 12:29:10;;;;;;;8.70;5.47;;;2.90;99.90;;;;;;5053726;28;20556;-52
2023/01/19 12:31:39;;;;;;;6.17;4.90;;;2.80;99.90;;;;;;5053820;28;20429;-51
2023/01/19 12:34:36;;;;;;;5.30;4.80;;;2.90;99.90;;;;;;5053696;28;20519;-51
2023/01/19 12:37:06;;;;;;;5.57;5.03;;;2.90;99.90;;;;;;5053601;28;20440;-51
2023/01/19 12:39:34;;;;;;;6.53;5.33;;;3.10;99.90;;;;;;5054143;28;20453;-52
2023/01/19 12:42:13;;;;;;;5.63;4.93;;;3.00;99.90;;;;;;5053611;28;20445;-51
2023/01/19 12:44:41;;;;;;;5.10;4.57;;;3.10;99.90;;;;;;5053629;28;20516;-51
2023/01/19 12:47:21;;;;;;;6.90;4.77;;;2.90;99.90;;;;;;5053516;28;20484;-51
2023/01/19 12:49:51;;;;;;;5.30;4.80;;;2.80;99.90;;;;;;5053495;28;20468;-53
2023/01/19 12:52:24;;;;;;;5.93;5.33;;;2.70;99.90;;;;;;5053532;28;20449;-51
2023/01/19 12:54:56;;;;;;;8.87;5.73;;;2.70;99.90;;;;;;5053065;28;20858;-51
2023/01/19 12:57:28;;;;;;;5.60;4.30;;;2.70;99.90;;;;;;5052807;28;20449;-51
2023/01/19 12:59:57;;;;;;;6.80;5.83;;;2.70;99.90;;;;;;5053252;28;20888;-51
2023/01/19 13:02:49;;;;;;;8.17;5.33;;;2.80;99.90;;;;;;5053501;28;20441;-51
2023/01/19 13:05:24;;;;;;;5.63;5.10;;;2.90;99.90;;;;;;5053293;28;20511;-51
2023/01/19 13:08:13;;;;;;;4.67;4.23;;;3.00;99.90;;;;;;5053156;28;20906;-51
2023/01/19 13:11:14;;;;;;;5.27;4.13;;;3.00;99.90;;;;;;5053257;28;20485;-51